Hlavní strana
METAR-TAF:

METAR-TAF

Letiště :

Lutselk'e, Severozápadní teritoria, Kanada

zeměpisná šířka: 62-25N, zeměpisná délka: 110-40W, výška: 179 m

Aktuální stav počasí

Zpráva byla vytvořena před 7 hodinami a 29 minutami, v 00:00 UTC
Jižní vítr 9 kt s nárazy do 16 kt
Teplota 9°C
Vlhkost vzduchu 40%
Tlak 1005 hPa
Viditelnost: 40.2 km
Polojasno ve výšce 20000 ft
Oblačno až skoro zataženo ve výšce 24000 ft

METAR: CYLK 240000Z 19009G16KT 25SM SCT200 BKN240 09/M04 A2967 RMK CC4CI3 10.6/107/0/SNW CVR NIL LAST STFD OBS NEXT 241400 SLP060

Čas: 01:29 (07:29 UTC)

Předpověď počasí

Zpráva byla vytvořena před 12 hodinami a 51 minutami, v 18:38 UTC
Předpověď platná od 23 v 19 UTC do 23 v 24 UTC
Jižní vítr 12 kt
Viditelnost: 10 km
Polojasno ve výšce 24000 ft

TAF: CYLK 231838Z 2319/2324 18012KT P6SM SCT240 RMK NXT FCST WILL BE ISSUED AT 241545Z

Stav a předpovědi počasí z více než 4 000 letišť (zprávy METAR a TAF).

Červené a žluté tečky na mapě představují dostupné meteorologické stanice.

Když kurzor umístíte na tečku, zobrazí se název stanice.

Pak kliknutím zobrazíte stav a předpověď počasí.

Chcete-li změnit mapu, kliknutím na zelené tlačítko se znaménkem +mapu přiblížíte, kliknutím na zelené tlačítko se znaménkem – mapu oddálíte a kliknutím na zelené šipky přejdete na sousední mapy.


METAR-TAF: